Terminal Aerodrome Forecast
Issued by NWS

Home | Current Version | Previous Version | Text Only | Print | Product List | Glossary On
Versions: 1 2 3 4 5 6 7 8 9 10 11 12 13 14
184
FTUS45 KABQ 261739
TAFSAF
TAF
KSAF 261739Z 2618/2718 26011KT P6SM VCSH BKN090
     FM262100 26011KT P6SM VCTS BKN080CB
      TEMPO 2621/2624 VRB15G25KT 6SM -SHRA OVC080
     FM270000 30011KT P6SM VCSH OVC090
     FM270400 01008KT P6SM BKN080=

USA.gov is the U.S. government's official web portal to all federal, state and local government web resources and services.